PWSweather.com
Personal Weather Stations
Station Observations
CALONGE
CalongeES 17251

CalongeES 17251

Lat: 41.85972222, Lon: 3.077777778

Elevation: 16

Station Type: Oregon WMR928N

Latest ConditionsUpdated 12:15:00 PM GMT+01:01 Tuesday, Dec 10, 2019
Currently Today's Max Today's Min Today's Average
Temperature 54.7°F12.6°C 54.7°F12.6°C 50.0°F10.0°C 52.1°F11.2°C
Dew Point 25.4°F-3.7°C 30.2°F-1.0°C 25.4°F-3.7°C 27.0°F-2.8°C
Winds 9.4 mph NW15.1 kmh NW 13.2 mph -21.2 kmh - - 8.8 mph 14.2 kmh
Wind Gusts 13.8 mph22.2 kmh 24.0 mph38.6 kmh - -
Humidity 32% 44% 32% 38%
Pressure 30.18 in1022.0 mb 30.21 in1023.0 mb 30.18 in1022.0 mb -
Hour Temp Dew Point Humidity Winds Wind Gusts Pressure Precip Precip Rate Daily Precip Total
12:15 PM 54.7°F12.6°C 25.4°F-3.7°C 32% 9.4 mph NW15.1 kmh NW 13.8 mph22.2 kmh 30.18 in1022.0 mb 0.00 in0.0 mm 0.00 in0.0 mm 0.01 in0.3 mm
12:00 PM 54.7°F12.6°C 25.4°F-3.7°C 32% 7.0 mph NW11.3 kmh NW 13.8 mph22.2 kmh 30.21 in1023.0 mb 0.00 in0.0 mm 0.00 in0.0 mm 0.01 in0.3 mm
11:45 AM 54.7°F12.6°C 25.4°F-3.7°C 32% 4.1 mph NW6.6 kmh NW 10.8 mph17.4 kmh 30.21 in1023.0 mb 0.00 in0.0 mm 0.00 in0.0 mm 0.01 in0.3 mm
11:30 AM 54.7°F12.6°C 25.4°F-3.7°C 32% 10.0 mph NW16.1 kmh NW 13.2 mph21.2 kmh 30.18 in1022.0 mb 0.00 in0.0 mm 0.00 in0.0 mm 0.01 in0.3 mm
11:15 AM 54.7°F12.6°C 25.4°F-3.7°C 32% 7.0 mph NW11.3 kmh NW 14.4 mph23.2 kmh 30.21 in1023.0 mb 0.00 in0.0 mm 0.00 in0.0 mm 0.01 in0.3 mm
11:00 AM 54.7°F12.6°C 25.4°F-3.7°C 32% 10.0 mph NW16.1 kmh NW 11.4 mph18.3 kmh 30.21 in1023.0 mb 0.00 in0.0 mm 0.00 in0.0 mm 0.01 in0.3 mm
10:45 AM 54.7°F12.6°C 25.4°F-3.7°C 32% 7.0 mph NNW11.3 kmh NNW 13.2 mph21.2 kmh 30.21 in1023.0 mb 0.00 in0.0 mm 0.00 in0.0 mm 0.01 in0.3 mm
10:30 AM 54.7°F12.6°C 25.4°F-3.7°C 32% 5.9 mph NW9.5 kmh NW 14.9 mph24.0 kmh 30.21 in1023.0 mb 0.00 in0.0 mm 0.00 in0.0 mm 0.01 in0.3 mm
10:15 AM 54.3°F12.4°C 26.5°F-3.1°C 34% 8.2 mph NNW13.2 kmh NNW 13.8 mph22.2 kmh 30.21 in1023.0 mb 0.00 in0.0 mm 0.00 in0.0 mm 0.01 in0.3 mm
10:00 AM 51.1°F10.6°C 26.3°F-3.2°C 38% 9.4 mph NNW15.1 kmh NNW 17.3 mph27.8 kmh 30.21 in1023.0 mb 0.00 in0.0 mm 0.00 in0.0 mm 0.01 in0.3 mm
09:45 AM 51.1°F10.6°C 26.3°F-3.2°C 38% 10.0 mph NW16.1 kmh NW 16.7 mph26.9 kmh 30.18 in1022.0 mb 0.00 in0.0 mm 0.00 in0.0 mm 0.01 in0.3 mm
09:30 AM 51.1°F10.6°C 26.3°F-3.2°C 38% 10.0 mph NNW16.1 kmh NNW 19.0 mph30.6 kmh 30.18 in1022.0 mb 0.00 in0.0 mm 0.00 in0.0 mm 0.01 in0.3 mm
09:15 AM 51.1°F10.6°C 26.3°F-3.2°C 38% 11.4 mph NW18.3 kmh NW 22.9 mph36.9 kmh 30.18 in1022.0 mb 0.00 in0.0 mm 0.00 in0.0 mm 0.01 in0.3 mm
09:00 AM 50.2°F10.1°C 26.1°F-3.3°C 39% 8.8 mph NNW14.2 kmh NNW 24.0 mph38.6 kmh 30.18 in1022.0 mb 0.00 in0.0 mm 0.00 in0.0 mm 0.01 in0.3 mm
08:45 AM 50.2°F10.1°C 26.1°F-3.3°C 39% 12.0 mph NNW19.3 kmh NNW 16.7 mph26.9 kmh 30.21 in1023.0 mb 0.00 in0.0 mm 0.00 in0.0 mm 0.01 in0.3 mm
08:30 AM 50.2°F10.1°C 26.1°F-3.3°C 39% 8.2 mph NNW13.2 kmh NNW 20.2 mph32.5 kmh 30.21 in1023.0 mb 0.00 in0.0 mm 0.00 in0.0 mm 0.01 in0.3 mm
08:15 AM 50.2°F10.1°C 26.1°F-3.3°C 39% 8.2 mph NNW13.2 kmh NNW 22.9 mph36.9 kmh 30.21 in1023.0 mb 0.00 in0.0 mm 0.00 in0.0 mm 0.01 in0.3 mm
08:00 AM 50.2°F10.1°C 26.1°F-3.3°C 39% 10.0 mph NNW16.1 kmh NNW 22.3 mph35.9 kmh 30.21 in1023.0 mb 0.00 in0.0 mm 0.00 in0.0 mm 0.01 in0.3 mm
07:45 AM 50.0°F10.0°C 26.6°F-3.0°C 40% 10.0 mph N16.1 kmh N 19.0 mph30.6 kmh 30.21 in1023.0 mb 0.00 in0.0 mm 0.00 in0.0 mm 0.01 in0.3 mm
07:30 AM 50.0°F10.0°C 26.6°F-3.0°C 40% 13.2 mph N21.2 kmh N 20.8 mph33.5 kmh 30.21 in1023.0 mb 0.00 in0.0 mm 0.00 in0.0 mm 0.01 in0.3 mm
02:15 AM 51.3°F10.7°C 29.5°F-1.4°C 43% 6.4 mph NNW10.3 kmh NNW 18.5 mph29.8 kmh 30.18 in1022.0 mb 0.01 in0.3 mm 0.00 in0.0 mm 0.01 in0.3 mm
02:00 AM 51.4°F10.8°C 29.1°F-1.6°C 42% 12.6 mph N20.3 kmh N 22.3 mph35.9 kmh 30.18 in1022.0 mb 0.01 in0.3 mm 0.01 in0.3 mm 0.01 in0.3 mm
01:45 AM 51.4°F10.8°C 30.2°F-1.0°C 44% 10.0 mph NNW16.1 kmh NNW 17.9 mph28.8 kmh 30.18 in1022.0 mb 0.00 in0.0 mm 0.00 in0.0 mm 0.00 in0.0 mm
01:30 AM 51.8°F11.0°C 29.4°F-1.4°C 42% 8.2 mph N13.2 kmh N 19.0 mph30.6 kmh 30.18 in1022.0 mb 0.00 in0.0 mm 0.00 in0.0 mm 0.00 in0.0 mm
01:15 AM 51.6°F10.9°C 28.7°F-1.8°C 41% 10.0 mph NW16.1 kmh NW 22.3 mph35.9 kmh 30.18 in1022.0 mb 0.00 in0.0 mm 0.00 in0.0 mm 0.00 in0.0 mm
01:00 AM 51.6°F10.9°C 28.7°F-1.8°C 41% 7.0 mph N11.3 kmh N 22.9 mph36.9 kmh 30.18 in1022.0 mb 0.00 in0.0 mm 0.00 in0.0 mm 0.00 in0.0 mm
12:45 AM 51.3°F10.7°C 28.9°F-1.7°C 42% 7.0 mph NNW11.3 kmh NNW 19.0 mph30.6 kmh 30.18 in1022.0 mb 0.00 in0.0 mm 0.00 in0.0 mm 0.00 in0.0 mm
12:30 AM 51.1°F10.6°C 28.8°F-1.8°C 42% 5.9 mph NNW9.5 kmh NNW 11.4 mph18.3 kmh 30.18 in1022.0 mb 0.00 in0.0 mm 0.00 in0.0 mm 0.00 in0.0 mm
12:15 AM 50.9°F10.5°C 29.7°F-1.3°C 44% 8.8 mph NNW14.2 kmh NNW 14.4 mph23.2 kmh 30.18 in1022.0 mb 0.00 in0.0 mm 0.00 in0.0 mm 0.00 in0.0 mm